Time;durP1;ratioP1;P1;durP2;ratioP2;P2;SDS_P1;SDS_P2;PMS_P1;PMS_P2;Temp;Humidity;BMP_temperature;BMP_pressure;BME280_temperature;BME280_humidity;BME280_pressure;Samples;Min_cycle;Max_cycle;Signal;HPM_P1;HPM_P2
2023/10/14 00:01:31;;;;;;;12.98;3.05;;;8.00;99.90;;;;;;5072608;28;20033;-77
2023/10/14 00:03:57;;;;;;;13.50;3.67;;;7.90;99.90;;;;;;5072369;28;20033;-78
2023/10/14 00:06:24;;;;;;;14.60;4.00;;;7.90;99.90;;;;;;5054835;28;20024;-78
2023/10/14 00:08:58;;;;;;;10.85;3.33;;;7.90;99.90;;;;;;5072230;28;20036;-78
2023/10/14 00:11:35;;;;;;;15.10;3.38;;;7.80;99.90;;;;;;5072677;28;20064;-78
2023/10/14 00:14:15;;;;;;;10.70;3.03;;;7.80;99.90;;;;;;5072117;28;20098;-78
2023/10/14 00:16:48;;;;;;;14.38;3.13;;;7.70;99.90;;;;;;5071657;28;20036;-79
2023/10/14 00:19:17;;;;;;;12.70;3.20;;;7.70;99.90;;;;;;5054602;28;20025;-79
2023/10/14 00:21:44;;;;;;;11.90;3.10;;;7.70;99.90;;;;;;5071967;28;20033;-79
2023/10/14 00:24:10;;;;;;;15.85;3.13;;;7.70;99.90;;;;;;5072263;28;20119;-79
2023/10/14 00:26:36;;;;;;;8.60;2.47;;;7.60;99.90;;;;;;5072483;28;20029;-80
2023/10/14 00:31:40;;;;;;;10.50;3.40;;;7.60;99.90;;;;;;5072036;28;20515;-81
2023/10/14 00:34:07;;;;;;;10.10;3.15;;;7.70;99.90;;;;;;5072617;28;20104;-78
2023/10/14 00:36:34;;;;;;;10.38;2.95;;;7.60;99.90;;;;;;5072469;28;20118;-78
2023/10/14 00:39:12;;;;;;;14.77;4.38;;;7.70;99.90;;;;;;5072073;28;20611;-78
2023/10/14 00:41:39;;;;;;;15.40;3.55;;;7.60;99.90;;;;;;5072364;28;20037;-77
2023/10/14 00:44:05;;;;;;;12.40;3.17;;;7.70;99.90;;;;;;5072271;28;20021;-78
2023/10/14 00:46:33;;;;;;;8.20;3.40;;;7.60;99.90;;;;;;5072263;28;20090;-78
2023/10/14 00:49:10;;;;;;;11.57;2.83;;;7.60;99.90;;;;;;5071190;28;20029;-78
2023/10/14 00:51:42;;;;;;;12.57;3.13;;;7.60;99.90;;;;;;5071778;28;20480;-78
2023/10/14 00:54:12;;;;;;;5.22;2.42;;;7.60;99.90;;;;;;5072048;28;20044;-78
2023/10/14 00:56:47;;;;;;;12.93;3.33;;;7.60;99.90;;;;;;5072268;28;20028;-78
2023/10/14 00:59:14;;;;;;;10.65;3.60;;;7.60;99.90;;;;;;5071765;28;20055;-78
2023/10/14 01:01:55;;;;;;;13.25;3.30;;;7.60;99.90;;;;;;5070795;28;20064;-80
2023/10/14 01:04:32;;;;;;;8.32;2.33;;;7.60;99.90;;;;;;5072030;28;20052;-78
2023/10/14 01:09:41;;;;;;;8.38;2.45;;;7.60;99.90;;;;;;5072465;28;20024;-78
2023/10/14 01:12:20;;;;;;;6.63;2.13;;;7.60;99.90;;;;;;5071736;28;20463;-78
2023/10/14 01:14:52;;;;;;;7.47;2.80;;;7.70;99.90;;;;;;5071729;28;20027;-79
2023/10/14 01:17:30;;;;;;;7.00;2.65;;;7.60;99.90;;;;;;5072432;28;20030;-77
2023/10/14 01:20:39;;;;;;;7.28;2.67;;;7.60;99.90;;;;;;5071257;28;20033;-78
2023/10/14 01:23:06;;;;;;;7.10;2.22;;;7.60;99.90;;;;;;5059793;28;20042;-77
2023/10/14 01:25:32;;;;;;;9.55;2.50;;;7.60;99.90;;;;;;5071690;28;20067;-77
2023/10/14 01:27:59;;;;;;;12.43;2.05;;;7.50;99.90;;;;;;5070759;28;20029;-77
2023/10/14 01:30:33;;;;;;;9.13;2.08;;;7.50;99.90;;;;;;5071302;28;20033;-78
2023/10/14 01:33:20;;;;;;;10.65;2.33;;;7.50;99.90;;;;;;5070575;28;20090;-77
2023/10/14 01:35:51;;;;;;;5.97;2.08;;;7.50;99.90;;;;;;5070726;28;20138;-78
2023/10/14 01:38:17;;;;;;;9.98;2.20;;;7.60;99.90;;;;;;5053174;28;20024;-78
2023/10/14 01:40:49;;;;;;;9.75;3.13;;;7.60;99.90;;;;;;5070889;28;20102;-81
2023/10/14 01:43:15;;;;;;;4.22;2.03;;;7.60;99.90;;;;;;5071295;28;20078;-78
2023/10/14 01:45:49;;;;;;;4.63;2.08;;;7.50;99.90;;;;;;5052796;28;20533;-77
2023/10/14 01:48:19;;;;;;;6.85;2.28;;;7.50;99.90;;;;;;5071053;28;20056;-77
2023/10/14 01:50:54;;;;;;;6.65;2.47;;;7.50;99.90;;;;;;5070417;28;20455;-80
2023/10/14 01:53:25;;;;;;;9.05;2.22;;;7.50;99.90;;;;;;5070960;28;20147;-77
2023/10/14 01:55:57;;;;;;;5.68;2.10;;;7.40;99.90;;;;;;5070828;28;20108;-76
2023/10/14 01:58:29;;;;;;;5.43;2.10;;;7.50;99.90;;;;;;5070732;28;20420;-76
2023/10/14 02:03:43;;;;;;;7.85;1.90;;;7.50;99.90;;;;;;5070914;28;20513;-77
2023/10/14 02:06:27;;;;;;;8.15;1.75;;;7.50;99.90;;;;;;5070551;28;20032;-77
2023/10/14 02:08:54;;;;;;;3.58;1.52;;;7.50;99.90;;;;;;5069947;28;20042;-77
2023/10/14 02:11:21;;;;;;;6.60;1.58;;;7.50;99.90;;;;;;5070459;28;20392;-77
2023/10/14 02:13:51;;;;;;;4.88;1.40;;;7.60;99.90;;;;;;5070381;28;20399;-79
2023/10/14 02:16:24;;;;;;;5.35;1.52;;;7.50;99.90;;;;;;5070587;28;20025;-77
2023/10/14 02:18:49;;;;;;;7.50;2.33;;;7.60;99.90;;;;;;5052923;28;20027;-77
2023/10/14 02:21:18;;;;;;;4.97;1.42;;;7.50;99.90;;;;;;5052485;28;20046;-78
2023/10/14 02:23:45;;;;;;;3.72;1.25;;;7.50;99.90;;;;;;5070615;28;20477;-78
2023/10/14 02:26:30;;;;;;;4.25;1.35;;;7.50;99.90;;;;;;5052317;28;20573;-77
2023/10/14 02:28:57;;;;;;;9.35;1.70;;;7.50;99.90;;;;;;5069947;28;20036;-77
2023/10/14 02:33:59;;;;;;;5.20;1.48;;;7.50;99.90;;;;;;5069912;28;20052;-77
2023/10/14 02:36:34;;;;;;;4.85;1.58;;;7.40;99.90;;;;;;5070632;28;20070;-77
2023/10/14 02:39:00;;;;;;;4.40;1.45;;;7.40;99.90;;;;;;5069976;28;20104;-78
2023/10/14 02:41:27;;;;;;;3.72;1.17;;;7.40;99.90;;;;;;5070198;28;20642;-79
2023/10/14 02:46:54;;;;;;;4.32;1.60;;;7.40;99.90;;;;;;5070297;28;20077;-78
2023/10/14 02:49:24;;;;;;;3.55;1.38;;;7.40;99.90;;;;;;5070081;28;20123;-77
2023/10/14 02:51:52;;;;;;;6.95;1.60;;;7.40;99.90;;;;;;5070091;28;20029;-79
2023/10/14 02:54:27;;;;;;;3.45;1.08;;;7.30;99.90;;;;;;5050538;28;20041;-77
2023/10/14 02:57:00;;;;;;;4.85;1.30;;;7.30;99.90;;;;;;5049678;28;20021;-77
2023/10/14 03:12:40;;;;;;;3.50;1.20;;;7.20;99.90;;;;;;5050292;28;20047;-77
2023/10/14 03:15:19;;;;;;;4.75;1.23;;;7.10;99.90;;;;;;5031651;28;20068;-77
2023/10/14 03:17:56;;;;;;;2.60;0.90;;;7.10;99.90;;;;;;5050377;28;20025;-77
2023/10/14 03:22:54;;;;;;;1.90;1.10;;;7.10;99.90;;;;;;5049895;28;20435;-77
2023/10/14 03:25:23;;;;;;;2.45;1.17;;;7.10;99.90;;;;;;5034119;28;20048;-77
2023/10/14 03:27:50;;;;;;;5.45;1.60;;;7.00;99.90;;;;;;5054072;28;20032;-77
2023/10/14 03:30:17;;;;;;;9.48;1.38;;;7.00;99.90;;;;;;5053322;28;20032;-78
2023/10/14 03:32:43;;;;;;;4.03;1.48;;;7.00;99.90;;;;;;5035548;28;20025;-78
2023/10/14 03:35:13;;;;;;;4.55;1.38;;;7.00;99.90;;;;;;5052175;28;20033;-77
2023/10/14 03:37:52;;;;;;;6.10;1.60;;;7.00;99.90;;;;;;5053874;28;20057;-78
2023/10/14 03:43:08;;;;;;;5.28;1.20;;;6.90;99.90;;;;;;5052939;28;20544;-78
2023/10/14 03:45:45;;;;;;;5.07;1.48;;;6.90;99.90;;;;;;5053324;28;20017;-78
2023/10/14 03:48:13;;;;;;;4.50;1.60;;;6.90;99.90;;;;;;5052955;28;20036;-78
2023/10/14 03:50:39;;;;;;;5.57;1.20;;;6.90;99.90;;;;;;5053170;28;20432;-78
2023/10/14 03:53:08;;;;;;;2.53;1.23;;;6.90;99.90;;;;;;5044714;28;20065;-78
2023/10/14 03:55:33;;;;;;;6.43;1.40;;;6.90;99.90;;;;;;5073247;28;20028;-78
2023/10/14 03:58:04;;;;;;;3.92;1.25;;;6.80;99.90;;;;;;5072098;28;20055;-78
2023/10/14 04:00:37;;;;;;;2.50;1.40;;;6.80;99.90;;;;;;5072913;28;20021;-78
2023/10/14 04:03:11;;;;;;;4.25;1.33;;;6.80;99.90;;;;;;5054124;28;20029;-78
2023/10/14 04:05:45;;;;;;;4.03;1.17;;;6.80;99.90;;;;;;5072960;28;20099;-78
2023/10/14 04:08:13;;;;;;;4.88;1.30;;;6.80;99.90;;;;;;5072407;28;20610;-79
2023/10/14 04:10:45;;;;;;;9.98;1.52;;;6.80;99.90;;;;;;5072696;28;20036;-77
2023/10/14 04:13:13;;;;;;;8.05;1.52;;;6.80;99.90;;;;;;5054275;28;20067;-78
2023/10/14 04:15:52;;;;;;;4.45;1.30;;;6.70;99.90;;;;;;5072578;28;20116;-78
2023/10/14 04:18:24;;;;;;;5.90;1.42;;;6.70;99.90;;;;;;5072506;28;20024;-77
2023/10/14 04:21:10;;;;;;;6.00;1.08;;;6.70;99.90;;;;;;5072187;28;20463;-77
2023/10/14 04:23:42;;;;;;;2.88;1.20;;;6.60;99.90;;;;;;5072419;28;20079;-77
2023/10/14 04:26:11;;;;;;;6.50;1.30;;;6.60;99.90;;;;;;5072251;28;20459;-77
2023/10/14 04:28:53;;;;;;;5.70;1.35;;;6.60;99.90;;;;;;5072186;28;20063;-77
2023/10/14 04:31:27;;;;;;;4.22;1.20;;;6.60;99.90;;;;;;5071919;28;20111;-77
2023/10/14 04:33:54;;;;;;;6.05;1.65;;;6.50;99.90;;;;;;5072197;28;20024;-77
2023/10/14 04:36:39;;;;;;;3.75;1.65;;;6.50;99.90;;;;;;5071029;28;20078;-77
2023/10/14 04:39:15;;;;;;;5.28;1.15;;;6.50;99.90;;;;;;5072118;28;20028;-77
2023/10/14 04:41:55;;;;;;;4.25;1.27;;;6.50;99.90;;;;;;5072193;28;20105;-77
2023/10/14 04:44:23;;;;;;;6.70;1.30;;;6.40;99.90;;;;;;5071661;28;20127;-77
2023/10/14 04:47:01;;;;;;;8.68;1.52;;;6.40;99.90;;;;;;5072111;28;20078;-77
2023/10/14 04:49:37;;;;;;;8.25;1.60;;;6.50;99.90;;;;;;5072032;28;20124;-78
2023/10/14 04:52:06;;;;;;;2.63;1.23;;;6.40;99.90;;;;;;5053163;28;20360;-77
2023/10/14 04:54:36;;;;;;;3.60;1.33;;;6.40;99.90;;;;;;5072481;28;20044;-78
2023/10/14 04:59:53;;;;;;;7.22;1.70;;;6.40;99.90;;;;;;5071844;28;20063;-76
2023/10/14 05:02:20;;;;;;;3.63;1.10;;;6.40;99.90;;;;;;5071107;28;20040;-77
2023/10/14 05:04:51;;;;;;;3.03;1.27;;;6.50;99.90;;;;;;5071543;28;20368;-77
2023/10/14 05:07:18;;;;;;;4.85;1.70;;;6.40;99.90;;;;;;5071144;28;20025;-78
2023/10/14 05:09:56;;;;;;;8.43;1.35;;;6.30;99.90;;;;;;5071606;28;20075;-79
2023/10/14 05:12:25;;;;;;;3.03;1.30;;;6.30;99.90;;;;;;5053188;28;20029;-78
2023/10/14 05:14:52;;;;;;;7.78;1.38;;;6.30;99.90;;;;;;5071936;28;20105;-77
2023/10/14 05:17:25;;;;;;;4.43;1.60;;;6.30;99.90;;;;;;5052795;28;20815;-77
2023/10/14 05:19:55;;;;;;;4.28;1.70;;;6.30;99.90;;;;;;5071498;28;20099;-78
2023/10/14 05:22:37;;;;;;;3.28;1.48;;;6.30;99.90;;;;;;5070904;28;20035;-77
2023/10/14 05:25:09;;;;;;;4.35;1.85;;;6.20;99.90;;;;;;5071108;28;20039;-78
2023/10/14 05:27:55;;;;;;;4.25;1.40;;;6.20;99.90;;;;;;5052809;28;20033;-78
2023/10/14 05:30:21;;;;;;;6.13;1.30;;;6.20;99.90;;;;;;5070611;28;20401;-77
2023/10/14 05:32:48;;;;;;;2.22;1.20;;;6.20;99.90;;;;;;5070875;28;20033;-77
2023/10/14 05:35:14;;;;;;;4.25;1.42;;;6.20;99.90;;;;;;5052409;28;20047;-78
2023/10/14 05:37:43;;;;;;;3.28;1.30;;;6.20;99.90;;;;;;5071116;28;20444;-78
2023/10/14 05:40:16;;;;;;;6.07;1.35;;;6.20;99.90;;;;;;5052551;28;20040;-79
2023/10/14 05:42:51;;;;;;;2.40;1.30;;;6.10;99.90;;;;;;5071541;28;20032;-77
2023/10/14 05:45:17;;;;;;;4.97;1.50;;;6.10;99.90;;;;;;5070941;28;20062;-77
2023/10/14 05:47:46;;;;;;;4.38;1.52;;;6.10;99.90;;;;;;5071114;28;20032;-77
2023/10/14 05:50:14;;;;;;;5.25;1.63;;;6.00;99.90;;;;;;5071104;28;20412;-77
2023/10/14 05:52:43;;;;;;;3.25;1.50;;;6.10;99.90;;;;;;5071050;28;20071;-76
2023/10/14 05:55:09;;;;;;;4.03;1.42;;;6.00;99.90;;;;;;5070660;28;20020;-78
2023/10/14 05:57:39;;;;;;;6.82;1.60;;;6.00;99.90;;;;;;5070901;28;20067;-77
2023/10/14 06:00:20;;;;;;;5.10;1.40;;;6.00;99.90;;;;;;5070734;28;20408;-78
2023/10/14 06:02:48;;;;;;;4.30;1.50;;;6.00;99.90;;;;;;5070740;28;20029;-78
2023/10/14 06:05:16;;;;;;;2.90;1.20;;;6.00;99.90;;;;;;5069675;28;20029;-80
2023/10/14 06:07:46;;;;;;;4.93;1.65;;;6.00;99.90;;;;;;5070887;28;20409;-78
2023/10/14 06:10:20;;;;;;;4.53;1.30;;;6.00;99.90;;;;;;5070432;28;20035;-78
2023/10/14 06:12:48;;;;;;;2.97;1.10;;;5.90;99.90;;;;;;5070725;28;20025;-77
2023/10/14 06:15:17;;;;;;;5.65;1.90;;;5.90;99.90;;;;;;5070097;28;20029;-77
2023/10/14 06:17:44;;;;;;;6.97;1.65;;;5.90;99.90;;;;;;5070583;28;20025;-76
2023/10/14 06:20:14;;;;;;;2.70;1.00;;;5.90;99.90;;;;;;5070074;28;20052;-77
2023/10/14 06:22:41;;;;;;;1.85;1.33;;;5.90;99.90;;;;;;5070472;28;20044;-76
2023/10/14 06:25:07;;;;;;;4.00;0.80;;;5.80;99.90;;;;;;5069904;28;20082;-77
2023/10/14 06:27:33;;;;;;;4.38;1.40;;;5.90;99.90;;;;;;5052645;28;20029;-76
2023/10/14 06:29:59;;;;;;;5.43;1.48;;;5.90;99.90;;;;;;5052370;28;20029;-78
2023/10/14 06:32:24;;;;;;;3.10;1.05;;;5.90;99.90;;;;;;5069913;28;20033;-76
2023/10/14 06:34:59;;;;;;;6.80;1.48;;;5.90;99.90;;;;;;5070271;28;20032;-77
2023/10/14 06:37:25;;;;;;;6.03;1.35;;;5.90;99.90;;;;;;5069524;28;20040;-78
2023/10/14 06:39:51;;;;;;;2.05;1.30;;;5.80;99.90;;;;;;5052158;28;20025;-76
2023/10/14 06:42:22;;;;;;;4.93;1.58;;;5.90;99.90;;;;;;5069261;28;20036;-77
2023/10/14 06:44:48;;;;;;;11.23;1.30;;;5.90;99.90;;;;;;5070223;28;20044;-76
2023/10/14 06:47:14;;;;;;;5.85;0.95;;;5.80;99.90;;;;;;5069463;28;20482;-77
2023/10/14 06:49:41;;;;;;;4.78;1.20;;;5.80;99.90;;;;;;5070493;28;20036;-77
2023/10/14 06:52:14;;;;;;;4.63;1.00;;;5.80;99.90;;;;;;5068953;28;20455;-77
2023/10/14 06:54:41;;;;;;;2.85;1.27;;;5.80;99.90;;;;;;5070228;28;20475;-76
2023/10/14 06:57:10;;;;;;;2.53;0.90;;;5.90;99.90;;;;;;5069642;28;20136;-77
2023/10/14 06:59:37;;;;;;;4.55;0.90;;;5.80;99.90;;;;;;5070788;28;20064;-77
2023/10/14 07:02:03;;;;;;;5.18;1.30;;;5.80;99.90;;;;;;5073949;28;20073;-81
2023/10/14 07:04:28;;;;;;;5.55;1.10;;;5.80;99.90;;;;;;5073352;28;20086;-78
2023/10/14 07:06:58;;;;;;;2.40;0.93;;;5.80;99.90;;;;;;5073865;28;20029;-78
2023/10/14 07:09:27;;;;;;;3.75;0.90;;;5.80;99.90;;;;;;5073030;28;20024;-78
2023/10/14 07:11:55;;;;;;;4.30;1.40;;;5.90;99.90;;;;;;5056428;28;20119;-78
2023/10/14 07:14:23;;;;;;;2.58;1.35;;;5.90;99.90;;;;;;5073673;28;20039;-78
2023/10/14 07:16:50;;;;;;;4.10;1.58;;;5.90;99.90;;;;;;5073488;28;20383;-77
2023/10/14 07:19:17;;;;;;;3.40;1.23;;;5.90;99.90;;;;;;5073175;28;20021;-76
2023/10/14 07:21:43;;;;;;;4.22;1.15;;;5.90;99.90;;;;;;5073466;28;20062;-76
2023/10/14 07:24:09;;;;;;;4.82;1.40;;;5.90;99.90;;;;;;5073181;28;20025;-76
2023/10/14 07:26:39;;;;;;;4.15;1.38;;;6.00;99.90;;;;;;5073220;28;20472;-77
2023/10/14 07:29:05;;;;;;;3.80;1.20;;;6.00;99.90;;;;;;5073364;28;20440;-80
2023/10/14 07:31:32;;;;;;;3.58;1.17;;;6.10;99.90;;;;;;5072558;28;20032;-77
2023/10/14 07:34:08;;;;;;;4.93;1.25;;;6.10;99.90;;;;;;5073456;28;20040;-76
2023/10/14 07:36:35;;;;;;;3.00;1.00;;;6.20;99.90;;;;;;5072878;28;20040;-78
2023/10/14 07:39:27;;;;;;;7.32;1.30;;;6.30;99.90;;;;;;5072858;28;20440;-77
2023/10/14 07:41:52;;;;;;;8.25;1.45;;;6.30;99.90;;;;;;5072601;28;20047;-77
2023/10/14 07:44:19;;;;;;;4.60;1.27;;;6.40;99.90;;;;;;5072708;28;20028;-76
2023/10/14 07:46:44;;;;;;;4.57;1.10;;;6.50;99.90;;;;;;5055956;28;20025;-78
2023/10/14 07:49:10;;;;;;;5.47;1.27;;;6.60;99.90;;;;;;5054753;28;20028;-77
2023/10/14 07:51:36;;;;;;;5.35;1.55;;;6.70;99.90;;;;;;5073612;28;20081;-77
2023/10/14 07:54:02;;;;;;;3.38;1.10;;;6.80;99.90;;;;;;5073056;28;20128;-77
2023/10/14 07:56:28;;;;;;;2.63;0.80;;;6.80;99.90;;;;;;5072722;28;20114;-77
2023/10/14 07:58:55;;;;;;;4.15;1.02;;;6.80;99.90;;;;;;5054812;28;20028;-78
2023/10/14 08:01:22;;;;;;;7.13;1.00;;;6.90;99.90;;;;;;5071692;28;20036;-78
2023/10/14 08:03:48;;;;;;;5.05;1.20;;;7.00;99.90;;;;;;5072862;28;20555;-79
2023/10/14 08:06:17;;;;;;;3.63;1.10;;;7.10;99.90;;;;;;5072142;28;20123;-79
2023/10/14 08:08:47;;;;;;;3.78;1.05;;;7.10;99.90;;;;;;5071661;28;20025;-79
2023/10/14 08:11:14;;;;;;;3.75;1.05;;;7.20;99.90;;;;;;5071543;28;20066;-79
2023/10/14 08:13:42;;;;;;;3.97;1.00;;;7.30;99.90;;;;;;5071784;28;20025;-79
2023/10/14 08:16:08;;;;;;;5.57;1.45;;;7.20;99.90;;;;;;5071503;28;20059;-82
2023/10/14 08:18:34;;;;;;;3.10;1.15;;;7.40;99.90;;;;;;5071308;28;20035;-80
2023/10/14 08:21:00;;;;;;;2.00;0.93;;;7.40;99.90;;;;;;5071695;28;20029;-79
2023/10/14 08:23:28;;;;;;;6.65;1.27;;;7.50;99.90;;;;;;5071634;28;20032;-79
2023/10/14 08:25:54;;;;;;;1.80;0.63;;;7.60;99.90;;;;;;5071473;28;20104;-79
2023/10/14 08:28:27;;;;;;;3.67;0.90;;;7.70;99.90;;;;;;5071192;28;20021;-79
2023/10/14 08:30:55;;;;;;;6.45;1.23;;;7.80;99.90;;;;;;5071711;28;20204;-79
2023/10/14 08:33:23;;;;;;;2.42;0.93;;;7.90;99.90;;;;;;5070692;28;20029;-79
2023/10/14 08:35:50;;;;;;;4.43;0.90;;;7.90;99.90;;;;;;5071390;28;20056;-79
2023/10/14 08:38:22;;;;;;;2.03;0.77;;;8.00;99.90;;;;;;5071627;28;20029;-79
2023/10/14 08:40:52;;;;;;;2.30;0.90;;;8.00;99.90;;;;;;5071884;28;20028;-78
2023/10/14 08:43:23;;;;;;;3.85;1.30;;;8.10;99.90;;;;;;5071369;28;20028;-78
2023/10/14 08:45:49;;;;;;;1.95;0.90;;;8.10;99.90;;;;;;5053682;28;20027;-77
2023/10/14 08:48:23;;;;;;;3.70;0.85;;;8.20;99.90;;;;;;5071388;28;20358;-77
2023/10/14 08:50:52;;;;;;;3.13;1.15;;;8.20;99.90;;;;;;5053290;28;20090;-78
2023/10/14 08:53:24;;;;;;;2.72;1.05;;;8.30;99.90;;;;;;5070737;28;20049;-79
2023/10/14 08:55:52;;;;;;;2.08;0.68;;;8.30;99.90;;;;;;5072028;28;20086;-78
2023/10/14 08:58:22;;;;;;;3.80;1.33;;;8.40;99.90;;;;;;5053169;28;20109;-79
2023/10/14 09:00:50;;;;;;;2.42;0.73;;;8.40;99.90;;;;;;5053573;28;20029;-79
2023/10/14 09:03:16;;;;;;;3.38;1.10;;;8.50;99.90;;;;;;5070815;28;20459;-80
2023/10/14 09:05:46;;;;;;;3.70;1.10;;;8.50;99.90;;;;;;5071237;28;20025;-80
2023/10/14 09:08:16;;;;;;;3.60;1.10;;;8.50;99.90;;;;;;5070922;28;20127;-83
2023/10/14 09:10:43;;;;;;;4.68;1.27;;;8.60;99.90;;;;;;5071338;28;20029;-80
2023/10/14 09:13:19;;;;;;;2.42;1.00;;;8.60;99.90;;;;;;5071696;28;20056;-80
2023/10/14 09:15:46;;;;;;;2.85;0.80;;;8.70;99.90;;;;;;5071712;28;20025;-79
2023/10/14 09:18:25;;;;;;;1.98;1.00;;;8.70;99.90;;;;;;5071655;28;20032;-83
2023/10/14 09:20:57;;;;;;;4.13;1.05;;;8.70;99.90;;;;;;5071616;28;20021;-79
2023/10/14 09:23:31;;;;;;;1.98;1.10;;;8.80;99.90;;;;;;5070556;28;20165;-78
2023/10/14 09:25:58;;;;;;;3.13;1.45;;;8.80;99.90;;;;;;5071560;28;20029;-78
2023/10/14 09:28:25;;;;;;;2.72;0.60;;;8.80;99.90;;;;;;5070906;28;20029;-79
2023/10/14 09:30:53;;;;;;;2.55;1.30;;;8.80;99.90;;;;;;5056371;28;20499;-79
2023/10/14 09:33:29;;;;;;;2.03;1.10;;;8.90;99.90;;;;;;5070613;28;20020;-79
2023/10/14 09:36:02;;;;;;;4.18;1.30;;;8.90;99.90;;;;;;5071288;28;20181;-78
2023/10/14 09:38:27;;;;;;;2.38;0.85;;;9.00;99.90;;;;;;5070826;28;20040;-79
2023/10/14 09:40:57;;;;;;;3.15;1.20;;;8.90;99.90;;;;;;5071394;28;20108;-78
2023/10/14 09:43:27;;;;;;;6.03;1.10;;;9.00;99.90;;;;;;5070764;28;20463;-79
2023/10/14 09:45:56;;;;;;;5.20;0.98;;;9.00;99.90;;;;;;5071283;28;20412;-78
2023/10/14 09:48:26;;;;;;;3.40;1.33;;;9.00;99.90;;;;;;5070850;28;20032;-79
2023/10/14 09:50:55;;;;;;;3.50;1.38;;;9.00;99.90;;;;;;5071219;28;20040;-80
2023/10/14 09:53:29;;;;;;;2.92;1.20;;;9.10;99.90;;;;;;5070233;28;20086;-79
2023/10/14 09:55:57;;;;;;;3.08;1.20;;;9.10;99.90;;;;;;5070585;28;20433;-78
2023/10/14 09:58:26;;;;;;;1.13;1.00;;;9.10;99.90;;;;;;5051917;28;20025;-79
2023/10/14 10:00:53;;;;;;;4.70;1.17;;;9.00;99.90;;;;;;5070050;28;20040;-78
2023/10/14 10:03:21;;;;;;;3.88;1.20;;;9.10;99.90;;;;;;5070419;28;20112;-78
2023/10/14 10:06:04;;;;;;;3.47;1.10;;;9.10;99.90;;;;;;5052154;28;20505;-78
2023/10/14 10:08:41;;;;;;;5.18;1.20;;;9.10;99.90;;;;;;5051790;28;20024;-79
2023/10/14 10:11:10;;;;;;;4.55;1.30;;;9.30;99.90;;;;;;5069834;28;20501;-79
2023/10/14 10:13:39;;;;;;;2.35;0.90;;;9.30;99.90;;;;;;5069862;28;20063;-78
2023/10/14 10:16:05;;;;;;;2.42;1.00;;;9.40;99.90;;;;;;5072432;28;20032;-78
2023/10/14 10:18:51;;;;;;;3.10;1.30;;;9.40;99.90;;;;;;5069977;28;20028;-78
2023/10/14 10:21:18;;;;;;;2.85;1.10;;;9.40;99.90;;;;;;5052196;28;20051;-82
2023/10/14 10:23:48;;;;;;;3.78;1.20;;;9.50;99.90;;;;;;5070180;28;20089;-78
2023/10/14 10:26:17;;;;;;;2.30;1.02;;;9.50;99.90;;;;;;5069472;28;20029;-79
2023/10/14 10:28:45;;;;;;;1.60;0.82;;;9.60;99.90;;;;;;5070217;28;20463;-78
2023/10/14 10:31:17;;;;;;;2.25;0.82;;;9.60;99.90;;;;;;5069795;28;20036;-79
2023/10/14 10:33:47;;;;;;;2.80;1.17;;;9.70;99.90;;;;;;5070759;28;20024;-78
2023/10/14 10:36:13;;;;;;;6.00;0.90;;;9.70;99.90;;;;;;5073705;28;20253;-78
2023/10/14 10:38:39;;;;;;;4.30;1.10;;;9.80;99.90;;;;;;5073749;28;20028;-78
2023/10/14 10:41:25;;;;;;;2.00;0.90;;;9.90;99.90;;;;;;5074259;28;20089;-79
2023/10/14 10:44:03;;;;;;;2.85;1.00;;;9.90;99.90;;;;;;5075167;28;20036;-79
2023/10/14 10:46:39;;;;;;;4.45;1.00;;;10.00;99.90;;;;;;5073851;28;20375;-79
2023/10/14 10:49:06;;;;;;;2.30;0.75;;;10.00;99.90;;;;;;5074033;28;20028;-80
2023/10/14 10:51:35;;;;;;;4.30;1.00;;;10.00;99.90;;;;;;5056206;28;20502;-79
2023/10/14 10:54:02;;;;;;;4.10;1.30;;;10.10;99.90;;;;;;5040225;28;20377;-80
2023/10/14 10:56:34;;;;;;;4.25;0.90;;;10.10;99.90;;;;;;5037931;28;20028;-80
2023/10/14 10:59:04;;;;;;;2.45;0.70;;;10.30;99.90;;;;;;5037572;28;20444;-80
2023/10/14 11:01:31;;;;;;;3.20;0.93;;;10.40;99.90;;;;;;5054115;28;20123;-80
2023/10/14 11:04:12;;;;;;;3.45;0.90;;;10.60;99.90;;;;;;5054644;28;20383;-80
2023/10/14 11:06:38;;;;;;;1.20;0.80;;;10.70;99.90;;;;;;5053938;28;20104;-80
2023/10/14 11:09:04;;;;;;;5.70;0.80;;;10.70;99.90;;;;;;5055399;28;20032;-80
2023/10/14 11:11:34;;;;;;;3.80;0.90;;;10.70;99.90;;;;;;5054299;28;20107;-80
2023/10/14 11:14:18;;;;;;;3.05;1.00;;;10.60;99.90;;;;;;5054667;28;20021;-79
2023/10/14 11:16:48;;;;;;;4.18;0.90;;;10.60;99.90;;;;;;5053583;28;20036;-80
2023/10/14 11:19:14;;;;;;;4.13;0.90;;;10.60;99.90;;;;;;5054472;28;20075;-80
2023/10/14 11:21:40;;;;;;;8.13;1.33;;;10.60;99.90;;;;;;5053510;28;20110;-80
2023/10/14 11:24:08;;;;;;;3.72;0.90;;;10.70;99.90;;;;;;5053871;28;20055;-79
2023/10/14 11:26:37;;;;;;;3.47;0.90;;;10.80;99.90;;;;;;5053071;28;20083;-80
2023/10/14 11:29:04;;;;;;;4.35;0.90;;;10.90;99.90;;;;;;5054152;28;20025;-79
2023/10/14 11:31:31;;;;;;;4.55;1.00;;;10.90;99.90;;;;;;5053338;28;20453;-79
2023/10/14 11:34:03;;;;;;;4.13;1.08;;;10.80;99.90;;;;;;5053468;28;20120;-80
2023/10/14 11:36:29;;;;;;;2.83;0.57;;;10.70;99.90;;;;;;5053586;28;20039;-79
2023/10/14 11:39:00;;;;;;;1.20;0.40;;;10.60;99.90;;;;;;5053607;28;20021;-79
2023/10/14 11:41:27;;;;;;;3.17;0.52;;;10.60;99.90;;;;;;5035091;28;20112;-80
2023/10/14 11:43:54;;;;;;;2.95;0.47;;;10.60;99.90;;;;;;5053803;28;20056;-79
2023/10/14 11:46:20;;;;;;;1.75;0.60;;;10.70;99.90;;;;;;5052023;28;20029;-82
2023/10/14 11:48:48;;;;;;;1.45;0.77;;;10.70;99.90;;;;;;5053241;28;20376;-80
2023/10/14 11:51:22;;;;;;;1.85;0.40;;;10.70;99.90;;;;;;5053546;28;20025;-81
2023/10/14 11:53:52;;;;;;;2.50;0.95;;;10.80;99.90;;;;;;5069917;28;20056;-80
2023/10/14 11:56:18;;;;;;;1.65;0.70;;;10.90;99.90;;;;;;5073309;28;20036;-80
2023/10/14 11:58:45;;;;;;;5.72;0.80;;;10.90;99.90;;;;;;5054499;28;20021;-80
2023/10/14 12:01:11;;;;;;;3.85;0.77;;;10.90;99.90;;;;;;5072811;28;20036;-79
2023/10/14 12:03:38;;;;;;;2.35;0.60;;;11.00;99.90;;;;;;5072565;28;20379;-80
2023/10/14 12:06:07;;;;;;;2.97;0.70;;;11.00;99.90;;;;;;5073253;28;20032;-79
2023/10/14 12:08:38;;;;;;;3.47;0.80;;;11.20;99.90;;;;;;5072471;28;20032;-80
2023/10/14 12:11:08;;;;;;;2.80;0.70;;;11.30;99.90;;;;;;5072728;28;20033;-79
2023/10/14 12:13:35;;;;;;;3.67;1.17;;;11.30;99.90;;;;;;5071732;28;20028;-80
2023/10/14 12:16:05;;;;;;;2.75;0.93;;;11.30;99.90;;;;;;5071652;28;20031;-80
2023/10/14 12:18:37;;;;;;;2.67;0.63;;;11.30;99.90;;;;;;5071307;28;20494;-80
2023/10/14 12:21:04;;;;;;;6.15;0.77;;;11.30;99.90;;;;;;5071954;28;20033;-80
2023/10/14 12:23:31;;;;;;;3.42;0.68;;;11.30;99.90;;;;;;5071446;28;20075;-81
2023/10/14 12:26:01;;;;;;;1.75;0.40;;;11.40;99.90;;;;;;5071699;28;20077;-80
2023/10/14 12:28:33;;;;;;;2.58;0.60;;;11.30;99.90;;;;;;5071060;28;20131;-80
2023/10/14 12:31:03;;;;;;;2.88;0.85;;;11.40;99.90;;;;;;5071555;28;20471;-81
2023/10/14 12:33:35;;;;;;;3.88;1.00;;;11.30;99.90;;;;;;5052913;28;20025;-81
2023/10/14 12:36:08;;;;;;;4.47;0.75;;;11.20;99.90;;;;;;5071871;28;20024;-80
2023/10/14 12:38:36;;;;;;;1.88;0.70;;;11.10;99.90;;;;;;5071455;28;20036;-81
2023/10/14 12:41:02;;;;;;;4.07;0.98;;;11.00;99.90;;;;;;5071951;28;20035;-80
2023/10/14 12:43:32;;;;;;;3.17;0.60;;;10.90;99.90;;;;;;5071376;28;20447;-81
2023/10/14 12:48:44;;;;;;;4.30;0.90;;;11.10;99.90;;;;;;5070890;28;20040;-79
2023/10/14 12:51:14;;;;;;;1.30;0.63;;;11.30;99.90;;;;;;5071602;28;20043;-79
2023/10/14 12:53:45;;;;;;;3.67;0.77;;;11.40;99.90;;;;;;5052591;28;20135;-79
2023/10/14 12:56:15;;;;;;;3.42;1.00;;;11.50;99.90;;;;;;5071487;28;20016;-80
2023/10/14 12:58:43;;;;;;;2.45;1.05;;;11.40;99.90;;;;;;5069432;28;20035;-79
2023/10/14 13:01:20;;;;;;;3.75;0.73;;;11.30;99.90;;;;;;5071330;28;20335;-81
2023/10/14 13:03:53;;;;;;;2.78;0.88;;;11.20;99.90;;;;;;5069049;28;20108;-81
2023/10/14 13:06:24;;;;;;;3.85;1.10;;;11.10;99.90;;;;;;5052954;28;20021;-80
2023/10/14 13:08:51;;;;;;;3.67;0.85;;;11.10;99.90;;;;;;5052512;28;20055;-79
2023/10/14 13:11:17;;;;;;;6.03;1.00;;;11.10;99.90;;;;;;5071001;28;20444;-79
2023/10/14 13:13:55;;;;;;;4.90;1.15;;;11.20;99.90;;;;;;5052446;28;20024;-79
2023/10/14 13:16:22;;;;;;;4.38;1.20;;;11.20;99.90;;;;;;5070656;28;20082;-79
2023/10/14 13:18:49;;;;;;;7.00;1.10;;;11.40;99.90;;;;;;5070316;28;20121;-80
2023/10/14 13:21:19;;;;;;;5.30;1.00;;;11.60;99.90;;;;;;5053430;28;20069;-80
2023/10/14 13:23:49;;;;;;;7.80;1.15;;;11.70;99.90;;;;;;5052848;28;20028;-80
2023/10/14 13:26:15;;;;;;;4.10;1.23;;;11.80;99.90;;;;;;5071465;28;20029;-80
2023/10/14 13:28:50;;;;;;;3.35;0.95;;;11.90;99.90;;;;;;5070602;28;20027;-81
2023/10/14 13:31:16;;;;;;;2.63;0.93;;;11.90;99.90;;;;;;5071809;28;20025;-79
2023/10/14 13:33:46;;;;;;;3.72;1.08;;;11.80;99.90;;;;;;5070513;28;20021;-80
2023/10/14 13:36:16;;;;;;;4.97;1.38;;;11.60;99.90;;;;;;5071779;28;20028;-80
2023/10/14 13:38:41;;;;;;;2.17;0.93;;;11.50;99.90;;;;;;5071016;28;20025;-81
2023/10/14 13:41:14;;;;;;;4.07;1.08;;;11.50;99.90;;;;;;5071301;28;20036;-80
2023/10/14 13:43:40;;;;;;;6.40;1.15;;;11.40;99.90;;;;;;5070526;28;20029;-81
2023/10/14 13:46:06;;;;;;;5.72;0.93;;;11.40;99.90;;;;;;5071036;28;20029;-81